createdAt,value
2018-12-31T00:02:11.843Z,12.63
2018-12-31T00:04:58.171Z,13.03
2018-12-31T00:07:25.267Z,13.07
2018-12-31T00:09:51.891Z,13.73
2018-12-31T00:12:38.397Z,9.97
2018-12-31T00:18:32.639Z,12.00
2018-12-31T00:21:18.990Z,11.60
2018-12-31T00:24:05.442Z,14.10
2018-12-31T00:26:32.067Z,15.27
2018-12-31T00:28:59.102Z,13.37
2018-12-31T00:31:45.505Z,12.37
2018-12-31T00:34:12.455Z,10.60
2018-12-31T00:36:59.130Z,12.00
2018-12-31T00:39:25.866Z,13.43
2018-12-31T00:41:52.503Z,15.57
2018-12-31T00:44:38.988Z,18.57
2018-12-31T00:47:25.520Z,12.40
2018-12-31T00:52:44.491Z,12.93
2018-12-31T00:55:11.274Z,13.50
2018-12-31T00:57:37.896Z,13.87
2018-12-31T01:00:04.850Z,12.60
2018-12-31T01:02:31.544Z,13.40
2018-12-31T01:04:58.175Z,17.00
2018-12-31T01:07:25.167Z,14.93
2018-12-31T01:10:11.575Z,14.63
2018-12-31T01:12:38.198Z,12.00
2018-12-31T01:15:05.153Z,12.53
2018-12-31T01:20:04.503Z,17.20
2018-12-31T01:22:50.940Z,18.33
2018-12-31T01:25:37.293Z,12.40
2018-12-31T01:28:23.774Z,12.80
2018-12-31T01:31:10.124Z,14.17
2018-12-31T01:33:56.836Z,19.90
2018-12-31T01:36:43.503Z,18.93
2018-12-31T01:39:29.920Z,16.23
2018-12-31T01:42:16.276Z,16.13
2018-12-31T01:47:35.383Z,16.07
2018-12-31T01:52:54.875Z,15.07
2018-12-31T01:56:02.965Z,13.53
2018-12-31T01:58:49.315Z,15.13
2018-12-31T02:01:35.818Z,17.83
2018-12-31T02:04:22.175Z,12.03
2018-12-31T02:06:48.868Z,17.93
2018-12-31T02:09:36.309Z,16.17
2018-12-31T02:12:04.204Z,15.93
2018-12-31T02:14:30.841Z,10.83
2018-12-31T02:17:17.260Z,13.37
2018-12-31T02:19:43.893Z,19.80
2018-12-31T02:22:30.369Z,10.97
2018-12-31T02:25:17.004Z,11.70
2018-12-31T02:27:43.792Z,12.57
2018-12-31T02:30:30.145Z,13.63
2018-12-31T02:33:38.557Z,16.47
2018-12-31T02:36:24.906Z,11.73
2018-12-31T02:39:11.602Z,15.90
2018-12-31T02:41:38.386Z,12.27
2018-12-31T02:44:05.123Z,14.07
2018-12-31T02:47:12.955Z,17.03
2018-12-31T02:49:39.585Z,14.97
2018-12-31T02:52:19.356Z,19.17
2018-12-31T02:55:05.863Z,13.57
2018-12-31T03:00:25.320Z,13.27
2018-12-31T03:05:45.230Z,23.07
2018-12-31T03:08:31.926Z,18.10
2018-12-31T03:11:18.313Z,18.73
2018-12-31T03:14:04.943Z,15.33
2018-12-31T03:16:51.274Z,22.17
2018-12-31T03:19:37.710Z,25.10
2018-12-31T03:22:24.055Z,25.07
2018-12-31T03:25:10.778Z,27.07
2018-12-31T03:27:37.529Z,26.70
2018-12-31T03:30:24.446Z,32.07
2018-12-31T03:33:10.693Z,35.47
2018-12-31T03:35:37.380Z,29.03
2018-12-31T03:38:23.744Z,29.50
2018-12-31T03:41:10.828Z,25.03
2018-12-31T03:43:57.183Z,26.20
2018-12-31T03:46:43.895Z,33.27
2018-12-31T03:49:30.258Z,28.00
2018-12-31T03:52:16.741Z,30.00
2018-12-31T03:54:43.422Z,28.67
2018-12-31T03:57:10.048Z,26.53
2018-12-31T03:59:49.841Z,28.00
2018-12-31T04:02:36.475Z,28.57
2018-12-31T04:05:44.332Z,28.27
2018-12-31T04:08:11.066Z,32.20
2018-12-31T04:10:37.698Z,27.73
2018-12-31T04:13:24.277Z,24.00
2018-12-31T04:16:10.623Z,26.93
2018-12-31T04:18:37.395Z,24.27
2018-12-31T04:21:23.751Z,28.00
2018-12-31T04:24:10.383Z,26.17
2018-12-31T04:26:37.018Z,26.60
2018-12-31T04:29:23.498Z,28.93
2018-12-31T04:31:50.815Z,25.57
2018-12-31T04:34:37.462Z,28.27
2018-12-31T04:37:04.090Z,25.37
2018-12-31T04:39:30.717Z,21.30
2018-12-31T04:42:17.116Z,26.10
2018-12-31T04:45:03.826Z,22.07
2018-12-31T04:50:23.593Z,29.67
2018-12-31T04:52:50.428Z,24.40
2018-12-31T04:55:44.408Z,25.20
2018-12-31T05:00:58.587Z,27.23
2018-12-31T05:03:25.276Z,26.53
2018-12-31T05:05:52.248Z,24.07
2018-12-31T05:08:19.219Z,25.83
2018-12-31T05:10:46.263Z,30.33
2018-12-31T05:13:13.010Z,22.53
2018-12-31T05:15:59.324Z,27.27
2018-12-31T05:18:45.685Z,22.53
2018-12-31T05:21:12.640Z,25.93
2018-12-31T05:23:39.280Z,24.83
2018-12-31T05:26:06.012Z,20.13
2018-12-31T05:28:52.439Z,25.97
2018-12-31T05:31:39.058Z,25.07
2018-12-31T05:34:25.540Z,19.90
2018-12-31T05:37:12.171Z,26.93
2018-12-31T05:42:11.774Z,24.97
2018-12-31T05:44:38.415Z,21.10
2018-12-31T05:47:24.831Z,30.20
2018-12-31T05:49:51.752Z,25.47
2018-12-31T05:52:18.385Z,26.03
2018-12-31T05:57:37.589Z,26.43
2018-12-31T06:02:59.134Z,29.70
2018-12-31T06:05:26.058Z,29.03
2018-12-31T06:08:12.758Z,35.83
2018-12-31T06:10:59.589Z,34.33
2018-12-31T06:13:46.346Z,34.77
2018-12-31T06:16:32.700Z,33.23
2018-12-31T06:18:59.504Z,29.33
2018-12-31T06:21:46.133Z,26.43
2018-12-31T06:24:32.891Z,28.97
2018-12-31T06:26:59.545Z,34.93
2018-12-31T06:29:26.183Z,29.63
2018-12-31T06:32:12.839Z,26.47
2018-12-31T06:34:39.603Z,29.03
2018-12-31T06:37:06.239Z,31.63
2018-12-31T06:39:52.695Z,30.03
2018-12-31T06:42:19.331Z,33.23
2018-12-31T06:45:05.749Z,32.23
2018-12-31T06:47:52.102Z,32.40
2018-12-31T06:50:18.791Z,31.90
2018-12-31T06:53:05.037Z,30.10
2018-12-31T06:56:12.869Z,30.57
2018-12-31T06:58:59.226Z,35.00
2018-12-31T07:04:18.581Z,32.97
2018-12-31T07:06:45.381Z,31.23
2018-12-31T07:09:12.176Z,31.30
2018-12-31T07:11:39.507Z,22.80
2018-12-31T07:16:38.994Z,31.67
2018-12-31T07:19:25.480Z,29.97
2018-12-31T07:22:12.107Z,33.90
2018-12-31T07:24:58.534Z,31.23
2018-12-31T07:27:44.784Z,32.23
2018-12-31T07:32:45.800Z,32.47
2018-12-31T07:35:32.200Z,37.63
2018-12-31T07:37:59.209Z,33.40
2018-12-31T07:40:45.691Z,26.43
2018-12-31T07:43:12.323Z,23.80
2018-12-31T07:45:38.975Z,29.17
2018-12-31T07:48:25.386Z,28.97
2018-12-31T07:50:52.144Z,27.73
2018-12-31T07:53:19.107Z,30.83
2018-12-31T07:58:38.227Z,28.23
2018-12-31T08:01:05.375Z,27.80
2018-12-31T08:03:51.879Z,27.33
2018-12-31T08:06:31.698Z,25.67
2018-12-31T08:08:58.330Z,27.93
2018-12-31T08:11:44.942Z,27.37
2018-12-31T08:14:12.383Z,28.07
2018-12-31T08:16:58.788Z,30.77
2018-12-31T08:19:25.425Z,31.23
2018-12-31T08:21:52.156Z,31.97
2018-12-31T08:24:38.630Z,24.60
2018-12-31T08:27:25.307Z,26.50
2018-12-31T08:30:11.698Z,25.40
2018-12-31T08:32:38.447Z,25.50
2018-12-31T08:35:05.513Z,28.73
2018-12-31T08:37:52.125Z,27.43
2018-12-31T08:40:38.527Z,37.13
2018-12-31T08:43:25.035Z,27.57
2018-12-31T08:46:11.398Z,25.37
2018-12-31T08:48:38.187Z,26.33
2018-12-31T08:51:24.818Z,23.80
2018-12-31T08:54:11.589Z,27.40
2018-12-31T08:56:57.947Z,25.63
2018-12-31T08:59:44.395Z,18.90
2018-12-31T09:02:30.750Z,24.97
2018-12-31T09:05:17.168Z,28.33
2018-12-31T09:07:56.565Z,23.17
2018-12-31T09:11:05.025Z,27.37
2018-12-31T09:13:51.399Z,25.77
2018-12-31T09:16:37.879Z,25.47
2018-12-31T09:19:04.752Z,26.47
2018-12-31T09:21:31.783Z,26.53
2018-12-31T09:23:58.600Z,26.27
2018-12-31T09:26:25.335Z,27.60
2018-12-31T09:29:11.928Z,27.70
2018-12-31T09:31:58.361Z,28.03
2018-12-31T09:37:17.435Z,25.13
2018-12-31T09:40:04.055Z,24.47
2018-12-31T09:42:50.689Z,25.67
2018-12-31T09:45:17.394Z,25.70
2018-12-31T09:47:44.448Z,22.43
2018-12-31T09:50:11.181Z,25.57
2018-12-31T09:52:57.622Z,24.47
2018-12-31T09:55:24.390Z,23.40
2018-12-31T09:57:51.023Z,21.97
2018-12-31T10:00:59.169Z,23.43
2018-12-31T10:03:26.228Z,20.10
2018-12-31T10:06:12.915Z,20.50
2018-12-31T10:08:52.056Z,27.37
2018-12-31T10:14:11.226Z,26.40
2018-12-31T10:19:10.615Z,21.03
2018-12-31T10:21:57.037Z,19.83
2018-12-31T10:24:43.666Z,23.53
2018-12-31T10:30:03.171Z,22.93
2018-12-31T10:32:30.628Z,19.03
2018-12-31T10:34:57.640Z,19.50
2018-12-31T10:37:44.046Z,23.10
2018-12-31T10:40:30.428Z,19.97
2018-12-31T10:43:17.211Z,19.67
2018-12-31T10:46:03.591Z,16.00
2018-12-31T10:51:22.943Z,16.57
2018-12-31T10:56:42.001Z,15.70
2018-12-31T10:59:28.532Z,15.27
2018-12-31T11:01:55.276Z,13.03
2018-12-31T11:04:22.299Z,16.63
2018-12-31T11:06:49.226Z,13.53
2018-12-31T11:09:29.053Z,13.53
2018-12-31T11:12:15.474Z,14.40
2018-12-31T11:15:01.842Z,18.07
2018-12-31T11:17:48.227Z,21.43
2018-12-31T11:20:34.861Z,12.47
2018-12-31T11:23:21.358Z,15.07
2018-12-31T11:26:07.713Z,14.27
2018-12-31T11:28:54.168Z,15.67
2018-12-31T11:31:40.804Z,11.90
2018-12-31T11:34:07.898Z,13.90
2018-12-31T11:36:54.267Z,15.70
2018-12-31T11:39:40.691Z,16.13
2018-12-31T11:42:27.056Z,15.83
2018-12-31T11:44:53.874Z,13.80
2018-12-31T11:47:41.076Z,12.00
2018-12-31T11:50:27.576Z,16.83
2018-12-31T11:53:14.211Z,16.30
2018-12-31T11:56:00.930Z,13.40
2018-12-31T11:58:47.415Z,14.73
2018-12-31T12:01:34.528Z,15.43
2018-12-31T12:04:20.906Z,14.20
2018-12-31T12:07:07.387Z,13.63
2018-12-31T12:09:53.759Z,18.47
2018-12-31T12:12:33.626Z,13.70
2018-12-31T12:15:20.084Z,20.00
2018-12-31T12:18:06.858Z,14.77
2018-12-31T12:20:53.390Z,16.07
2018-12-31T12:24:01.478Z,14.03
2018-12-31T12:26:48.040Z,13.13
2018-12-31T12:29:35.111Z,12.93
2018-12-31T12:32:21.643Z,14.07
2018-12-31T12:35:08.084Z,15.07
2018-12-31T12:37:34.838Z,14.00
2018-12-31T12:40:21.241Z,14.17
2018-12-31T12:43:08.013Z,17.63
2018-12-31T12:45:54.345Z,16.53
2018-12-31T12:48:40.695Z,18.40
2018-12-31T12:51:27.196Z,13.57
2018-12-31T12:54:13.577Z,12.67
2018-12-31T12:57:00.028Z,12.17
2018-12-31T12:59:46.389Z,14.07
2018-12-31T13:02:32.807Z,14.73
2018-12-31T13:05:03.608Z,10.83
2018-12-31T13:07:28.402Z,14.57
2018-12-31T13:10:14.881Z,14.33
2018-12-31T13:13:01.841Z,12.10
2018-12-31T13:15:30.939Z,12.13
2018-12-31T13:18:17.613Z,14.00
2018-12-31T13:21:04.175Z,17.80
2018-12-31T13:23:50.536Z,13.63
2018-12-31T13:26:43.624Z,15.93
2018-12-31T13:29:05.954Z,15.60
2018-12-31T13:31:32.813Z,11.67
2018-12-31T13:33:59.612Z,18.37
2018-12-31T13:36:26.487Z,14.93
2018-12-31T13:38:53.343Z,15.10
2018-12-31T13:41:20.502Z,14.33
2018-12-31T13:44:08.682Z,12.73
2018-12-31T13:46:35.547Z,12.47
2018-12-31T13:49:02.267Z,13.40
2018-12-31T13:51:28.998Z,12.83
2018-12-31T13:53:56.149Z,14.27
2018-12-31T13:56:23.201Z,13.73
2018-12-31T13:58:49.944Z,12.20
2018-12-31T14:01:16.979Z,15.77
2018-12-31T14:03:43.712Z,16.23
2018-12-31T14:06:10.772Z,15.37
2018-12-31T14:08:37.599Z,13.97
2018-12-31T14:11:04.770Z,13.40
2018-12-31T14:13:31.904Z,17.83
2018-12-31T14:16:12.008Z,12.80
2018-12-31T14:18:39.228Z,13.93
2018-12-31T14:21:05.866Z,15.13
2018-12-31T14:23:32.724Z,14.63
2018-12-31T14:25:59.450Z,13.87
2018-12-31T14:28:26.183Z,15.00
2018-12-31T14:30:53.152Z,15.50
2018-12-31T14:33:41.304Z,15.20
2018-12-31T14:36:08.197Z,13.20
2018-12-31T14:38:35.259Z,13.70
2018-12-31T14:41:02.300Z,14.67
2018-12-31T14:43:50.625Z,13.87
2018-12-31T14:46:17.780Z,14.30
2018-12-31T14:48:44.520Z,15.20
2018-12-31T14:51:31.060Z,12.43
2018-12-31T14:54:17.425Z,15.37
2018-12-31T14:59:17.283Z,11.30
2018-12-31T15:02:03.773Z,12.37
2018-12-31T15:04:50.262Z,15.70
2018-12-31T15:07:17.087Z,18.40
2018-12-31T15:10:03.443Z,18.77
2018-12-31T15:12:49.859Z,16.00
2018-12-31T15:15:36.236Z,20.13
2018-12-31T15:21:31.298Z,16.90
2018-12-31T15:24:17.790Z,17.53
2018-12-31T15:27:04.459Z,17.67
2018-12-31T15:29:50.816Z,19.07
2018-12-31T15:32:37.311Z,20.13
2018-12-31T15:35:45.602Z,14.40
2018-12-31T15:38:32.290Z,18.03
2018-12-31T15:41:18.653Z,21.57
2018-12-31T15:44:05.348Z,20.43
2018-12-31T15:46:51.708Z,22.10
2018-12-31T15:49:38.211Z,18.50
2018-12-31T15:52:24.873Z,15.57
2018-12-31T15:54:51.988Z,19.47
2018-12-31T15:57:38.635Z,18.00
2018-12-31T16:00:07.561Z,24.97
2018-12-31T16:02:36.339Z,24.10
2018-12-31T16:05:22.841Z,17.17
2018-12-31T16:08:09.200Z,22.43
2018-12-31T16:10:56.346Z,20.03
2018-12-31T16:13:42.919Z,22.17
2018-12-31T16:16:36.539Z,16.97
2018-12-31T16:19:22.960Z,20.73
2018-12-31T16:22:09.675Z,21.77
2018-12-31T16:24:36.789Z,20.73
2018-12-31T16:27:03.899Z,20.60
2018-12-31T16:32:23.683Z,19.23
2018-12-31T16:35:10.187Z,20.57
2018-12-31T16:37:56.822Z,19.03
2018-12-31T16:40:24.003Z,19.40
2018-12-31T16:42:51.089Z,21.97
2018-12-31T16:46:18.164Z,23.10
2018-12-31T16:48:47.784Z,23.03
2018-12-31T16:56:48.420Z,25.90
2018-12-31T16:59:15.292Z,29.13
2018-12-31T17:02:02.045Z,23.60
2018-12-31T17:04:48.406Z,25.93
2018-12-31T17:07:34.895Z,30.70
2018-12-31T17:10:21.361Z,27.77
2018-12-31T17:13:07.798Z,20.93
2018-12-31T17:19:00.159Z,24.27
2018-12-31T17:21:27.048Z,21.97
2018-12-31T17:23:54.127Z,23.70
2018-12-31T17:26:21.149Z,22.83
2018-12-31T17:28:47.985Z,25.03
2018-12-31T17:31:14.892Z,23.67
2018-12-31T17:33:42.447Z,26.47
2018-12-31T17:36:09.203Z,28.00
2018-12-31T17:38:36.248Z,30.17
2018-12-31T17:41:03.400Z,27.23
2018-12-31T17:43:30.425Z,32.43
2018-12-31T17:45:57.621Z,31.60
2018-12-31T17:48:44.329Z,31.90
2018-12-31T17:51:30.704Z,45.30
2018-12-31T17:53:57.924Z,38.00
2018-12-31T17:56:26.300Z,38.90
2018-12-31T17:58:53.213Z,35.13
2018-12-31T18:01:20.400Z,31.43
2018-12-31T18:04:16.283Z,39.80
2018-12-31T18:09:43.888Z,43.43
2018-12-31T18:19:17.349Z,44.50
2018-12-31T18:27:58.684Z,47.60
2018-12-31T18:30:42.668Z,43.23
2018-12-31T18:33:56.971Z,43.67
2018-12-31T18:36:47.430Z,46.23
2018-12-31T18:39:14.437Z,39.57
2018-12-31T18:51:10.516Z,44.73
2018-12-31T18:54:43.653Z,43.87
2018-12-31T18:57:32.263Z,45.57
2018-12-31T19:02:10.245Z,51.33
2018-12-31T19:03:18.221Z,51.73
2018-12-31T19:18:35.147Z,51.50
2018-12-31T19:21:23.501Z,45.93
2018-12-31T19:24:12.763Z,53.63
2018-12-31T19:26:39.506Z,48.93
2018-12-31T19:29:10.808Z,55.17
2018-12-31T19:37:22.734Z,50.27
2018-12-31T19:39:49.468Z,50.00
2018-12-31T19:42:16.232Z,45.00
2018-12-31T19:44:43.307Z,47.23
2018-12-31T19:47:10.247Z,42.97
2018-12-31T19:49:37.106Z,41.77
2018-12-31T19:52:45.092Z,37.87
2018-12-31T19:55:11.968Z,137.07
2018-12-31T19:57:38.713Z,113.43
2018-12-31T20:00:06.475Z,74.40
2018-12-31T20:02:33.207Z,148.40
2018-12-31T20:05:00.292Z,95.40
2018-12-31T20:10:00.263Z,40.03
2018-12-31T20:12:28.860Z,43.70
2018-12-31T20:14:55.656Z,41.70
2018-12-31T20:17:22.409Z,43.33
2018-12-31T20:19:49.850Z,43.50
2018-12-31T20:22:16.590Z,42.47
2018-12-31T20:24:43.331Z,47.23
2018-12-31T20:27:10.489Z,47.53
2018-12-31T20:29:50.509Z,45.73
2018-12-31T20:32:17.488Z,44.17
2018-12-31T20:34:44.239Z,44.87
2018-12-31T20:37:10.972Z,43.20
2018-12-31T20:39:37.771Z,48.67
2018-12-31T20:42:04.811Z,47.23
2018-12-31T20:44:31.686Z,45.53
2018-12-31T20:46:58.504Z,47.50
2018-12-31T20:49:25.245Z,49.43
2018-12-31T20:51:51.977Z,46.47
2018-12-31T20:54:19.391Z,47.80
2018-12-31T20:56:46.130Z,43.50
2018-12-31T20:59:12.861Z,48.73
2018-12-31T21:01:39.823Z,48.80
2018-12-31T21:04:06.696Z,48.13
2018-12-31T21:18:26.316Z,55.60
2018-12-31T21:20:57.061Z,52.67
2018-12-31T21:23:35.626Z,53.03
2018-12-31T21:25:55.318Z,52.97
2018-12-31T21:28:22.293Z,62.10
2018-12-31T21:30:49.982Z,62.90
2018-12-31T21:33:18.061Z,58.63
2018-12-31T21:35:47.555Z,54.97
2018-12-31T21:38:14.286Z,61.07
2018-12-31T21:40:41.086Z,61.27
2018-12-31T21:43:07.914Z,60.73
2018-12-31T21:48:25.536Z,65.27
2018-12-31T21:50:52.556Z,63.23
2018-12-31T21:53:19.875Z,62.10
2018-12-31T21:55:48.990Z,59.93
2018-12-31T21:58:15.774Z,60.03
2018-12-31T22:00:46.300Z,56.20
2018-12-31T22:13:20.013Z,48.53
2018-12-31T22:25:27.700Z,50.13
2018-12-31T22:27:38.734Z,42.10
2018-12-31T22:30:07.161Z,37.83
2018-12-31T22:32:47.364Z,41.27
2018-12-31T22:35:14.115Z,35.33
2018-12-31T22:38:00.609Z,33.60
2018-12-31T22:40:27.598Z,36.23
2018-12-31T22:42:55.387Z,32.97
2018-12-31T22:45:22.317Z,40.47
2018-12-31T22:47:49.115Z,36.37
2018-12-31T22:50:16.044Z,37.80
2018-12-31T22:52:42.912Z,32.97
2018-12-31T22:55:09.816Z,35.43
2018-12-31T22:58:18.576Z,35.93
2018-12-31T23:00:46.126Z,30.97
2018-12-31T23:03:37.194Z,47.97
2018-12-31T23:06:05.157Z,115.80
2018-12-31T23:08:37.545Z,59.77
2018-12-31T23:11:04.956Z,195.60
2018-12-31T23:13:35.329Z,157.00
2018-12-31T23:16:23.507Z,79.87
2018-12-31T23:18:53.169Z,40.83
2018-12-31T23:21:20.022Z,40.30
2018-12-31T23:23:58.777Z,51.10
2018-12-31T23:33:24.812Z,147.83
2018-12-31T23:53:46.190Z,45.40
2018-12-31T23:56:14.484Z,49.00
2018-12-31T23:58:44.935Z,35.73
